Weather at Lakeview-Airport-Griffith Field

Public forecast

Using degrees Fahrenheit for public forecast. Weather courtesy of forecast.io.

Closest aviation weather report (METAR) to Lakeview-Airport-Griffith Field

Closest report is Roben Hood Airport, 19.3 nm (35.7 km) NNW. Retrieved 2021/01/27 06:35 UTC (0 seconds ago):

KRQB 270635Z AUTO 01006KT 10SM OVC020 M07/M10 A3018 RMK AO2 T10691104

Closest aviation forecast (TAF) to Lakeview-Airport-Griffith Field

Closest forecast is Gerald R. Ford International Airport, 36.1 nm (66.9 km) SSW. Retrieved 2021/01/27 06:48 UTC (0 seconds ago):

TAF KGRR 270547Z 2706/2806 00000KT P6SM BKN021 FM271800 35009KT P6SM BKN025 FM280300 35007KT P6SM BKN050